createdAt,value
2023-04-29T00:01:43.977Z,12.10
2023-04-29T00:04:32.389Z,12.00
2023-04-29T00:07:19.420Z,12.00
2023-04-29T00:10:07.386Z,12.00
2023-04-29T00:12:54.435Z,12.00
2023-04-29T00:15:42.671Z,11.90
2023-04-29T00:18:29.523Z,12.00
2023-04-29T00:21:17.782Z,12.00
2023-04-29T00:24:04.850Z,11.90
2023-04-29T00:26:51.796Z,11.90
2023-04-29T00:29:38.857Z,11.90
2023-04-29T00:32:25.924Z,11.90
2023-04-29T00:35:13.106Z,11.80
2023-04-29T00:38:01.478Z,11.80
2023-04-29T00:40:48.702Z,11.90
2023-04-29T00:43:35.607Z,11.80
2023-04-29T00:46:22.394Z,11.80
2023-04-29T00:49:10.917Z,11.90
2023-04-29T00:52:00.228Z,11.90
2023-04-29T00:54:48.954Z,11.90
2023-04-29T00:57:35.911Z,11.80
2023-04-29T01:00:24.554Z,11.80
2023-04-29T01:03:12.078Z,11.80
2023-04-29T01:06:10.161Z,11.70
2023-04-29T01:09:13.435Z,11.70
2023-04-29T01:12:12.689Z,11.70
2023-04-29T01:15:07.002Z,11.70
2023-04-29T01:18:00.060Z,11.60
2023-04-29T01:20:47.932Z,11.50
2023-04-29T01:23:36.113Z,11.50
2023-04-29T01:26:23.101Z,11.40
2023-04-29T01:29:24.901Z,11.30
2023-04-29T01:32:18.634Z,11.30
2023-04-29T01:35:12.977Z,11.20
2023-04-29T01:38:08.506Z,11.20
2023-04-29T01:41:05.880Z,11.10
2023-04-29T01:43:53.768Z,11.10
2023-04-29T01:46:41.950Z,11.00
2023-04-29T01:49:30.013Z,11.00
2023-04-29T01:52:16.727Z,10.90
2023-04-29T01:55:04.336Z,10.90
2023-04-29T01:57:52.591Z,10.90
2023-04-29T02:00:39.680Z,10.80
2023-04-29T02:03:27.015Z,10.70
2023-04-29T02:06:13.613Z,10.70
2023-04-29T02:09:00.172Z,10.60
2023-04-29T02:11:47.376Z,10.60
2023-04-29T02:14:37.789Z,10.60
2023-04-29T02:17:25.173Z,10.50
2023-04-29T02:20:13.030Z,10.50
2023-04-29T02:22:59.557Z,10.50
2023-04-29T02:25:46.394Z,10.40
2023-04-29T02:28:33.229Z,10.30
2023-04-29T02:31:21.617Z,10.30
2023-04-29T02:34:08.736Z,10.30
2023-04-29T02:36:55.517Z,10.30
2023-04-29T02:39:42.506Z,10.20
2023-04-29T02:42:29.906Z,10.20
2023-04-29T02:45:17.440Z,10.20
2023-04-29T02:48:05.959Z,10.20
2023-04-29T02:50:53.172Z,10.10
2023-04-29T02:53:41.106Z,10.10
2023-04-29T02:56:28.171Z,10.00
2023-04-29T02:59:14.981Z,10.00
2023-04-29T03:02:02.124Z,9.90
2023-04-29T03:04:50.220Z,9.90
2023-04-29T03:07:37.105Z,9.90
2023-04-29T03:10:24.153Z,9.90
2023-04-29T03:13:10.977Z,9.90
2023-04-29T03:15:58.713Z,9.80
2023-04-29T03:18:46.262Z,9.80
2023-04-29T03:21:34.284Z,9.80
2023-04-29T03:24:20.854Z,9.70
2023-04-29T03:27:07.835Z,9.70
2023-04-29T03:29:55.171Z,9.60
2023-04-29T03:32:42.413Z,9.70
2023-04-29T03:35:29.311Z,9.60
2023-04-29T03:38:17.428Z,9.60
2023-04-29T03:41:04.443Z,9.70
2023-04-29T03:43:51.511Z,9.60
2023-04-29T03:46:38.598Z,9.60
2023-04-29T03:49:25.601Z,9.60
2023-04-29T03:52:13.536Z,9.50
2023-04-29T03:55:01.493Z,9.50
2023-04-29T03:57:48.263Z,9.50
2023-04-29T04:00:35.309Z,9.40
2023-04-29T04:03:22.952Z,9.40
2023-04-29T04:06:09.871Z,9.30
2023-04-29T04:08:56.762Z,9.30
2023-04-29T04:11:44.963Z,9.30
2023-04-29T04:14:35.643Z,9.30
2023-04-29T04:17:22.691Z,9.30
2023-04-29T04:20:10.492Z,9.20
2023-04-29T04:22:57.537Z,9.20
2023-04-29T04:25:48.105Z,9.10
2023-04-29T04:28:39.303Z,9.00
2023-04-29T04:31:26.547Z,9.00
2023-04-29T04:34:13.722Z,9.00
2023-04-29T04:37:00.664Z,9.00
2023-04-29T04:39:47.849Z,9.00
2023-04-29T04:42:34.600Z,8.90
2023-04-29T04:45:22.725Z,8.90
2023-04-29T04:48:09.818Z,8.90
2023-04-29T04:50:56.469Z,9.00
2023-04-29T04:53:43.120Z,9.00
2023-04-29T04:56:30.989Z,9.20
2023-04-29T04:59:17.630Z,9.30
2023-04-29T05:02:05.539Z,9.40
2023-04-29T05:04:52.542Z,9.50
2023-04-29T05:07:40.004Z,9.60
2023-04-29T05:10:27.349Z,9.70
2023-04-29T05:13:14.152Z,9.60
2023-04-29T05:16:08.982Z,9.60
2023-04-29T05:18:57.445Z,9.80
2023-04-29T05:21:44.715Z,10.00
2023-04-29T05:24:31.732Z,10.10
2023-04-29T05:27:18.947Z,10.30
2023-04-29T05:30:06.491Z,10.40
2023-04-29T05:32:53.606Z,10.20
2023-04-29T05:35:45.070Z,10.50
2023-04-29T05:38:32.038Z,10.70
2023-04-29T05:41:18.884Z,10.70
2023-04-29T05:44:06.496Z,10.60
2023-04-29T05:46:53.369Z,10.60
2023-04-29T05:49:40.827Z,10.60
2023-04-29T05:52:29.046Z,10.70
2023-04-29T05:55:16.069Z,10.70
2023-04-29T05:58:02.784Z,10.70
2023-04-29T06:00:50.490Z,10.70
2023-04-29T06:03:37.984Z,10.70
2023-04-29T06:06:25.791Z,10.80
2023-04-29T06:09:26.429Z,10.90
2023-04-29T06:12:14.650Z,11.00
2023-04-29T06:15:01.910Z,11.30
2023-04-29T06:17:49.764Z,11.20
2023-04-29T06:20:37.774Z,11.20
2023-04-29T06:23:24.833Z,11.20
2023-04-29T06:26:13.620Z,11.30
2023-04-29T06:29:00.251Z,11.50
2023-04-29T06:31:46.965Z,11.70
2023-04-29T06:34:34.064Z,12.20
2023-04-29T06:37:21.314Z,12.70
2023-04-29T06:40:09.703Z,13.40
2023-04-29T06:42:57.862Z,14.20
2023-04-29T06:45:47.835Z,15.10
2023-04-29T06:48:34.894Z,16.10
2023-04-29T06:51:21.916Z,16.90
2023-04-29T06:54:08.876Z,17.70
2023-04-29T06:56:55.522Z,17.80
2023-04-29T06:59:43.656Z,17.70
2023-04-29T07:02:30.762Z,17.20
2023-04-29T07:05:18.323Z,17.20
2023-04-29T07:08:05.002Z,17.80
2023-04-29T07:10:56.635Z,18.00
2023-04-29T07:13:43.463Z,18.00
2023-04-29T07:16:31.733Z,18.40
2023-04-29T07:19:18.804Z,18.60
2023-04-29T07:22:05.854Z,19.20
2023-04-29T07:24:55.040Z,19.40
2023-04-29T07:27:42.210Z,19.20
2023-04-29T07:30:29.048Z,19.60
2023-04-29T07:33:17.515Z,19.60
2023-04-29T07:36:05.070Z,19.70
2023-04-29T07:38:52.494Z,19.30
2023-04-29T07:41:39.427Z,19.30
2023-04-29T07:44:26.239Z,19.70
2023-04-29T07:47:13.034Z,19.80
2023-04-29T07:50:01.391Z,20.10
2023-04-29T07:52:48.111Z,20.40
2023-04-29T07:55:34.753Z,20.90
2023-04-29T07:58:21.584Z,21.50
2023-04-29T08:01:10.367Z,22.00
2023-04-29T08:03:57.614Z,21.90
2023-04-29T08:06:46.805Z,22.00
2023-04-29T08:09:33.977Z,22.20
2023-04-29T08:12:20.804Z,22.60
2023-04-29T08:15:09.768Z,23.00
2023-04-29T08:17:57.436Z,22.80
2023-04-29T08:20:44.432Z,22.30
2023-04-29T08:23:33.265Z,21.80
2023-04-29T08:26:20.555Z,21.50
2023-04-29T08:29:07.377Z,21.80
2023-04-29T08:31:54.818Z,22.70
2023-04-29T08:34:41.953Z,23.00
2023-04-29T08:37:28.639Z,22.80
2023-04-29T08:40:16.998Z,23.00
2023-04-29T08:43:06.003Z,23.60
2023-04-29T08:45:54.116Z,23.60
2023-04-29T08:48:44.844Z,23.20
2023-04-29T08:51:33.132Z,23.50
2023-04-29T08:54:19.908Z,23.50
2023-04-29T08:57:08.782Z,23.90
2023-04-29T08:59:55.780Z,23.80
2023-04-29T09:02:46.503Z,24.40
2023-04-29T09:05:36.489Z,23.90
2023-04-29T09:08:25.112Z,24.60
2023-04-29T09:11:12.841Z,24.10
2023-04-29T09:14:04.344Z,23.40
2023-04-29T09:16:51.572Z,23.70
2023-04-29T09:19:38.408Z,23.80
2023-04-29T09:22:25.483Z,23.80
2023-04-29T09:25:15.602Z,23.20
2023-04-29T09:28:16.432Z,23.40
2023-04-29T09:31:06.521Z,24.00
2023-04-29T09:33:55.325Z,24.20
2023-04-29T09:36:45.107Z,23.90
2023-04-29T09:39:40.894Z,24.10
2023-04-29T09:42:27.685Z,24.30
2023-04-29T09:45:14.697Z,24.10
2023-04-29T09:48:04.928Z,24.50
2023-04-29T09:51:02.643Z,24.40
2023-04-29T09:53:49.674Z,24.00
2023-04-29T09:56:50.820Z,24.00
2023-04-29T09:59:39.044Z,24.60
2023-04-29T10:02:26.758Z,24.70
2023-04-29T10:05:15.815Z,24.20
2023-04-29T10:08:02.996Z,23.70
2023-04-29T10:10:50.369Z,23.80
2023-04-29T10:13:38.875Z,23.10
2023-04-29T10:16:30.993Z,23.40
2023-04-29T10:19:26.539Z,24.20
2023-04-29T10:22:28.047Z,23.80
2023-04-29T10:25:17.211Z,23.10
2023-04-29T10:28:05.420Z,23.40
2023-04-29T10:31:06.532Z,23.20
2023-04-29T10:34:06.306Z,22.80
2023-04-29T10:37:14.409Z,23.20
2023-04-29T10:40:16.414Z,23.10
2023-04-29T10:43:04.681Z,23.30
2023-04-29T10:45:51.999Z,23.10
2023-04-29T10:48:39.010Z,22.80
2023-04-29T10:51:33.878Z,22.80
2023-04-29T10:54:26.028Z,22.40
2023-04-29T10:57:22.833Z,22.80
2023-04-29T11:00:23.353Z,22.30
2023-04-29T11:03:30.345Z,22.10
2023-04-29T11:06:17.775Z,22.50
2023-04-29T11:13:28.093Z,22.80
2023-04-29T11:16:15.238Z,22.40
2023-04-29T11:19:10.068Z,22.90
2023-04-29T11:22:21.292Z,22.60
2023-04-29T11:25:11.938Z,22.80
2023-04-29T11:27:59.693Z,23.10
2023-04-29T11:30:49.819Z,23.40
2023-04-29T11:33:37.021Z,22.80
2023-04-29T11:36:24.450Z,22.10
2023-04-29T11:39:12.005Z,22.10
2023-04-29T11:42:07.138Z,22.10
2023-04-29T11:44:56.806Z,22.80
2023-04-29T11:47:46.975Z,22.90
2023-04-29T11:50:34.123Z,23.10
2023-04-29T11:53:22.116Z,23.00
2023-04-29T11:56:10.706Z,23.00
2023-04-29T11:58:57.992Z,22.80
2023-04-29T12:01:45.284Z,23.20
2023-04-29T12:04:33.666Z,23.50
2023-04-29T12:07:20.619Z,23.10
2023-04-29T12:10:11.286Z,23.40
2023-04-29T12:13:00.332Z,23.20
2023-04-29T12:15:49.805Z,22.40
2023-04-29T12:18:37.065Z,22.70
2023-04-29T12:21:37.258Z,22.50
2023-04-29T12:24:25.715Z,22.90
2023-04-29T12:27:12.737Z,23.00
2023-04-29T12:30:00.028Z,22.60
2023-04-29T12:32:48.689Z,23.10
2023-04-29T12:35:36.287Z,22.90
2023-04-29T12:38:28.156Z,22.90
2023-04-29T12:41:17.487Z,22.60
2023-04-29T12:44:05.792Z,21.80
2023-04-29T12:46:55.703Z,21.70
2023-04-29T12:49:45.571Z,22.50
2023-04-29T12:52:33.632Z,22.90
2023-04-29T12:55:23.033Z,22.40
2023-04-29T12:58:10.508Z,22.20
2023-04-29T13:00:57.570Z,21.90
2023-04-29T13:03:44.812Z,22.20
2023-04-29T13:06:32.902Z,21.90
2023-04-29T13:09:20.167Z,21.80
2023-04-29T13:12:11.213Z,21.90
2023-04-29T13:14:58.271Z,21.70
2023-04-29T13:17:59.472Z,22.10
2023-04-29T13:20:53.865Z,22.20
2023-04-29T13:23:41.129Z,22.00
2023-04-29T13:26:28.163Z,21.90
2023-04-29T13:29:16.139Z,21.80
2023-04-29T13:32:03.162Z,21.70
2023-04-29T13:34:50.282Z,21.10
2023-04-29T13:37:37.625Z,21.00
2023-04-29T13:40:27.864Z,20.70
2023-04-29T13:43:20.943Z,20.90
2023-04-29T13:46:13.308Z,20.90
2023-04-29T13:52:20.344Z,20.70
2023-04-29T13:55:39.015Z,20.60
2023-04-29T14:03:46.185Z,20.50
2023-04-29T14:06:34.224Z,20.00
2023-04-29T14:09:21.532Z,19.90
2023-04-29T14:12:08.356Z,19.60
2023-04-29T14:14:55.217Z,19.40
2023-04-29T14:17:42.292Z,19.40
2023-04-29T14:20:30.699Z,19.70
2023-04-29T14:23:17.610Z,19.90
2023-04-29T14:26:22.281Z,20.20
2023-04-29T14:29:11.604Z,20.40
2023-04-29T14:31:58.547Z,20.30
2023-04-29T14:34:45.362Z,20.40
2023-04-29T14:37:33.941Z,20.50
2023-04-29T14:40:21.176Z,20.70
2023-04-29T14:43:08.164Z,20.40
2023-04-29T14:45:55.040Z,20.20
2023-04-29T14:48:41.729Z,19.20
2023-04-29T14:51:28.480Z,19.60
2023-04-29T14:54:17.300Z,19.80
2023-04-29T14:57:04.334Z,19.60
2023-04-29T14:59:51.586Z,19.00
2023-04-29T15:02:38.588Z,19.00
2023-04-29T15:05:25.781Z,18.90
2023-04-29T15:08:13.288Z,19.00
2023-04-29T15:11:01.401Z,18.80
2023-04-29T15:13:48.385Z,18.70
2023-04-29T15:16:39.173Z,18.60
2023-04-29T15:19:26.394Z,18.70
2023-04-29T15:22:13.320Z,18.90
2023-04-29T15:25:01.176Z,18.40
2023-04-29T15:27:49.566Z,18.60
2023-04-29T15:30:36.567Z,18.80
2023-04-29T15:33:23.898Z,18.70
2023-04-29T15:36:10.985Z,18.50
2023-04-29T15:38:58.267Z,18.50
2023-04-29T15:41:47.730Z,18.40
2023-04-29T15:44:36.438Z,18.40
2023-04-29T15:47:23.699Z,18.40
2023-04-29T15:50:11.475Z,18.20
2023-04-29T15:52:58.985Z,17.80
2023-04-29T15:55:45.907Z,17.70
2023-04-29T15:58:32.991Z,17.40
2023-04-29T16:01:21.384Z,17.30
2023-04-29T16:04:08.346Z,17.10
2023-04-29T16:06:55.177Z,16.80
2023-04-29T16:09:42.537Z,16.60
2023-04-29T16:12:30.548Z,16.50
2023-04-29T16:15:17.553Z,16.40
2023-04-29T16:18:05.606Z,16.20
2023-04-29T16:20:52.711Z,16.20
2023-04-29T16:23:39.808Z,15.80
2023-04-29T16:26:27.039Z,15.80
2023-04-29T16:29:13.880Z,15.90
2023-04-29T16:32:00.723Z,15.60
2023-04-29T16:34:49.148Z,15.60
2023-04-29T16:37:36.831Z,15.70
2023-04-29T16:40:24.544Z,15.50
2023-04-29T16:43:14.385Z,15.40
2023-04-29T16:46:01.746Z,15.20
2023-04-29T16:48:51.375Z,15.10
2023-04-29T16:51:40.117Z,15.00
2023-04-29T16:54:27.849Z,14.50
2023-04-29T16:57:15.138Z,14.50
2023-04-29T17:00:02.321Z,14.40
2023-04-29T17:02:51.081Z,14.30
2023-04-29T17:05:39.163Z,14.20
2023-04-29T17:08:27.836Z,14.10
2023-04-29T17:11:14.955Z,13.90
2023-04-29T17:14:01.982Z,14.00
2023-04-29T17:16:48.650Z,14.00
2023-04-29T17:19:36.025Z,14.00
2023-04-29T17:22:23.573Z,14.00
2023-04-29T17:25:14.859Z,13.90
2023-04-29T17:28:02.032Z,13.80
2023-04-29T17:30:48.978Z,13.90
2023-04-29T17:33:35.862Z,13.80
2023-04-29T17:36:23.047Z,13.70
2023-04-29T17:39:11.281Z,13.70
2023-04-29T17:42:00.229Z,13.70
2023-04-29T17:44:47.467Z,13.80
2023-04-29T17:47:35.494Z,13.70
2023-04-29T17:50:22.498Z,13.70
2023-04-29T17:53:09.237Z,13.70
2023-04-29T17:55:56.001Z,13.70
2023-04-29T17:58:44.374Z,13.50
2023-04-29T18:01:32.290Z,13.50
2023-04-29T18:04:19.560Z,13.50
2023-04-29T18:07:07.586Z,13.40
2023-04-29T18:09:54.762Z,13.40
2023-04-29T18:12:42.257Z,13.30
2023-04-29T18:15:31.877Z,13.30
2023-04-29T18:18:18.697Z,13.30
2023-04-29T18:21:06.270Z,13.20
2023-04-29T18:23:53.476Z,13.20
2023-04-29T18:26:40.374Z,13.20
2023-04-29T18:29:27.609Z,13.10
2023-04-29T18:32:16.317Z,13.00
2023-04-29T18:35:03.985Z,12.90
2023-04-29T18:37:51.005Z,12.90
2023-04-29T18:40:37.978Z,12.80
2023-04-29T18:43:28.505Z,12.70
2023-04-29T18:46:16.350Z,12.60
2023-04-29T18:49:04.641Z,12.60
2023-04-29T18:51:52.540Z,12.70
2023-04-29T18:54:39.539Z,12.60
2023-04-29T18:57:26.447Z,12.50
2023-04-29T19:00:16.328Z,12.40
2023-04-29T19:03:03.440Z,12.20
2023-04-29T19:05:51.864Z,12.10
2023-04-29T19:08:38.699Z,12.00
2023-04-29T19:11:26.408Z,12.00
2023-04-29T19:14:13.573Z,12.00
2023-04-29T19:17:00.830Z,12.00
2023-04-29T19:19:47.772Z,11.80
2023-04-29T19:22:36.358Z,11.70
2023-04-29T19:25:26.074Z,11.60
2023-04-29T19:28:13.338Z,11.50
2023-04-29T19:31:00.356Z,11.40
2023-04-29T19:33:48.126Z,11.30
2023-04-29T19:36:35.388Z,11.20
2023-04-29T19:39:23.701Z,11.10
2023-04-29T19:42:10.867Z,10.90
2023-04-29T19:44:57.671Z,10.80
2023-04-29T19:47:44.911Z,10.70
2023-04-29T19:50:31.985Z,10.70
2023-04-29T19:53:18.903Z,10.60
2023-04-29T19:56:07.721Z,10.50
2023-04-29T19:58:54.773Z,10.50
2023-04-29T20:01:42.581Z,10.40
2023-04-29T20:04:30.113Z,10.30
2023-04-29T20:07:17.149Z,10.30
2023-04-29T20:10:04.573Z,10.30
2023-04-29T20:12:52.922Z,10.20
2023-04-29T20:15:40.566Z,10.10
2023-04-29T20:18:27.448Z,10.10
2023-04-29T20:21:14.706Z,10.00
2023-04-29T20:24:01.918Z,9.90
2023-04-29T20:26:49.125Z,9.90
2023-04-29T20:29:37.230Z,9.80
2023-04-29T20:32:24.119Z,9.70
2023-04-29T20:35:11.182Z,9.70
2023-04-29T20:37:58.232Z,9.60
2023-04-29T20:40:45.169Z,9.60
2023-04-29T20:43:32.274Z,9.50
2023-04-29T20:46:20.834Z,9.30
2023-04-29T20:49:07.984Z,9.20
2023-04-29T20:51:55.091Z,9.30
2023-04-29T20:54:41.923Z,9.30
2023-04-29T20:57:29.010Z,9.30
2023-04-29T21:00:16.382Z,9.30
2023-04-29T21:03:05.030Z,9.40
2023-04-29T21:05:54.783Z,9.40
2023-04-29T21:08:42.889Z,9.40
2023-04-29T21:11:29.617Z,9.50
2023-04-29T21:14:16.749Z,9.50
2023-04-29T21:17:03.804Z,9.70
2023-04-29T21:19:52.402Z,9.60
2023-04-29T21:22:40.058Z,9.60
2023-04-29T21:25:26.920Z,9.60
2023-04-29T21:28:15.470Z,9.60
2023-04-29T21:31:03.549Z,9.70
2023-04-29T21:33:50.896Z,9.80
2023-04-29T21:36:39.419Z,9.80
2023-04-29T21:39:26.918Z,9.90
2023-04-29T21:42:14.628Z,9.80
2023-04-29T21:45:03.129Z,9.70
2023-04-29T21:47:50.872Z,9.70
2023-04-29T21:50:38.910Z,9.60
2023-04-29T21:53:29.883Z,9.60
2023-04-29T21:56:17.325Z,9.60
2023-04-29T21:59:04.460Z,9.60
2023-04-29T22:02:00.112Z,9.70
2023-04-29T22:04:47.412Z,9.70
2023-04-29T22:07:34.680Z,9.80
2023-04-29T22:10:22.956Z,9.80
2023-04-29T22:13:10.371Z,9.80
2023-04-29T22:16:01.023Z,9.70
2023-04-29T22:18:48.258Z,9.80
2023-04-29T22:21:34.986Z,9.80
2023-04-29T22:24:21.885Z,9.90
2023-04-29T22:27:10.156Z,9.80
2023-04-29T22:29:57.233Z,9.80
2023-04-29T22:32:44.490Z,9.80
2023-04-29T22:35:31.812Z,9.80
2023-04-29T22:38:18.899Z,9.70
2023-04-29T22:41:07.352Z,9.60
2023-04-29T22:43:57.550Z,9.50
2023-04-29T22:46:44.962Z,9.50
2023-04-29T22:49:31.964Z,9.50
2023-04-29T22:52:18.828Z,9.50
2023-04-29T22:55:06.568Z,9.50
2023-04-29T22:57:53.619Z,9.60
2023-04-29T23:00:44.753Z,9.50
2023-04-29T23:03:31.386Z,9.60
2023-04-29T23:06:19.805Z,9.60
2023-04-29T23:09:06.961Z,9.50
2023-04-29T23:11:54.400Z,9.50
2023-04-29T23:14:41.656Z,9.50
2023-04-29T23:17:30.182Z,9.40
2023-04-29T23:20:17.649Z,9.40
2023-04-29T23:23:04.837Z,9.50
2023-04-29T23:25:51.874Z,9.40
2023-04-29T23:28:39.051Z,9.40
2023-04-29T23:31:26.263Z,9.30
2023-04-29T23:34:16.524Z,9.30
2023-04-29T23:37:03.380Z,9.30
2023-04-29T23:39:51.308Z,9.30
2023-04-29T23:42:38.653Z,9.30
2023-04-29T23:45:25.873Z,9.30
2023-04-29T23:48:12.973Z,9.30
2023-04-29T23:51:01.463Z,9.30
2023-04-29T23:53:48.292Z,9.40
2023-04-29T23:56:35.006Z,9.40
2023-04-29T23:59:21.895Z,9.40
